Time;durP1;ratioP1;P1;durP2;ratioP2;P2;SDS_P1;SDS_P2;PMS_P1;PMS_P2;Temp;Humidity;BMP_temperature;BMP_pressure;BME280_temperature;BME280_humidity;BME280_pressure;Samples;Min_cycle;Max_cycle;Signal;HPM_P1;HPM_P2
2022/12/16 00:01:54;;;;;;;39.67;20.98;;;;;;;-6.13;70.17;98142.50;5007094;28;20038;-78
2022/12/16 00:04:19;;;;;;;42.70;23.33;;;;;;;-6.06;70.19;98163.47;5028122;28;20048;-78
2022/12/16 00:06:45;;;;;;;43.70;24.10;;;;;;;-6.12;70.39;98157.13;5027347;28;20025;-78
2022/12/16 00:09:10;;;;;;;46.63;22.25;;;;;;;-6.13;70.21;98167.66;5029228;28;20100;-78
2022/12/16 00:11:35;;;;;;;45.95;22.23;;;;;;;-6.20;70.69;98175.28;5012382;28;20034;-78
2022/12/16 00:14:01;;;;;;;46.33;22.50;;;;;;;-6.08;70.47;98177.56;5013613;28;20053;-78
2022/12/16 00:16:27;;;;;;;44.38;22.67;;;;;;;-6.21;70.34;98160.69;5030121;28;20044;-78
2022/12/16 00:18:53;;;;;;;38.38;20.63;;;;;;;-6.06;70.57;98180.81;5031359;28;20104;-78
2022/12/16 00:21:19;;;;;;;38.75;21.30;;;;;;;-6.13;70.39;98170.25;5025699;28;21747;-78
2022/12/16 00:23:45;;;;;;;41.72;22.20;;;;;;;-6.14;70.36;98171.25;5043371;28;20029;-78
2022/12/16 00:26:11;;;;;;;35.60;20.42;;;;;;;-6.18;70.38;98170.75;5027402;28;20123;-78
2022/12/16 00:28:37;;;;;;;43.10;23.15;;;;;;;-6.19;70.28;98156.16;5020203;28;20035;-78
2022/12/16 00:31:03;;;;;;;44.58;21.33;;;;;;;-6.07;69.90;98174.00;5028163;28;20101;-78
2022/12/16 00:33:29;;;;;;;36.15;20.25;;;;;;;-6.10;70.15;98156.97;5028562;28;20118;-78
2022/12/16 00:35:55;;;;;;;41.25;20.02;;;;;;;-6.01;70.26;98166.41;5025500;28;20065;-78
2022/12/16 00:38:22;;;;;;;50.70;21.85;;;;;;;-6.06;69.71;98171.25;5022815;28;20609;-78
2022/12/16 00:40:48;;;;;;;37.65;19.95;;;;;;;-6.09;69.51;98155.97;5037251;28;20065;-78
2022/12/16 00:43:13;;;;;;;35.22;19.00;;;;;;;-6.14;69.77;98161.66;5033201;28;20080;-78
2022/12/16 00:45:39;;;;;;;40.75;21.08;;;;;;;-6.11;69.87;98157.94;5021875;28;20030;-78
2022/12/16 00:48:05;;;;;;;40.45;19.40;;;;;;;-6.27;69.61;98156.13;5007920;28;20036;-78
2022/12/16 00:50:31;;;;;;;37.17;20.65;;;;;;;-6.23;69.87;98157.44;5031348;28;20014;-78
2022/12/16 00:52:56;;;;;;;41.30;19.52;;;;;;;-6.17;69.81;98158.56;5010472;28;20052;-78
2022/12/16 00:55:22;;;;;;;35.63;19.17;;;;;;;-6.14;69.90;98153.06;5021699;28;20056;-78
2022/12/16 00:57:47;;;;;;;41.45;21.58;;;;;;;-6.09;69.65;98163.75;5021615;28;20040;-78
2022/12/16 01:00:15;;;;;;;37.65;19.23;;;;;;;-6.13;69.70;98154.69;5024437;28;20033;-78
2022/12/16 01:02:46;;;;;;;38.10;19.92;;;;;;;-6.07;69.70;98159.22;5008396;28;20037;-78
2022/12/16 01:05:13;;;;;;;38.45;20.63;;;;;;;-6.07;69.19;98150.66;5023904;28;20097;-78
2022/12/16 01:07:39;;;;;;;39.85;20.42;;;;;;;-6.09;69.03;98155.19;5028200;28;20036;-78
2022/12/16 01:10:06;;;;;;;34.63;18.67;;;;;;;-6.15;69.09;98151.44;5025753;28;20496;-78
2022/12/16 01:12:32;;;;;;;35.53;20.17;;;;;;;-6.35;69.01;98147.50;5028429;28;20675;-78
2022/12/16 01:14:57;;;;;;;37.08;19.48;;;;;;;-6.28;69.67;98159.69;5025743;28;20380;-78
2022/12/16 01:17:24;;;;;;;35.15;18.73;;;;;;;-6.28;69.33;98162.28;5025914;28;20041;-78
2022/12/16 01:19:51;;;;;;;37.38;18.92;;;;;;;-6.36;69.29;98154.50;5009924;28;20061;-78
2022/12/16 01:22:16;;;;;;;41.47;18.98;;;;;;;-6.25;69.61;98166.34;5029030;28;20053;-78
2022/12/16 01:24:43;;;;;;;36.42;18.92;;;;;;;-6.46;69.57;98153.81;5023659;28;21405;-78
2022/12/16 01:27:08;;;;;;;39.47;20.80;;;;;;;-8.10;70.93;98165.38;5026307;28;20419;-78
2022/12/16 01:29:33;;;;;;;40.03;20.27;;;;;;;-7.98;73.67;98172.75;5022631;28;20031;-78
2022/12/16 01:31:59;;;;;;;39.38;20.17;;;;;;;-6.92;73.02;98169.84;5040455;28;20044;-78
2022/12/16 01:34:24;;;;;;;38.95;21.83;;;;;;;-6.47;71.03;98182.53;5026517;28;20075;-78
2022/12/16 01:36:49;;;;;;;41.55;19.40;;;;;;;-6.32;70.29;98183.53;5024626;28;20072;-79
2022/12/16 01:39:16;;;;;;;38.28;20.27;;;;;;;-6.28;69.79;98177.88;5029016;28;20034;-79
2022/12/16 01:41:41;;;;;;;40.30;19.92;;;;;;;-6.32;69.21;98173.16;5029143;28;20119;-79
2022/12/16 01:44:16;;;;;;;41.58;19.80;;;;;;;-6.44;69.73;98180.41;5024354;28;20041;-79
2022/12/16 01:46:44;;;;;;;43.50;20.73;;;;;;;-6.46;69.73;98177.16;5023350;28;20076;-79
2022/12/16 01:49:22;;;;;;;36.13;18.10;;;;;;;-6.34;69.58;98172.50;5022980;28;20282;-79
2022/12/16 01:51:48;;;;;;;42.17;20.27;;;;;;;-6.26;69.53;98180.28;5027066;28;20037;-79
2022/12/16 01:54:27;;;;;;;39.17;19.30;;;;;;;-6.21;69.50;98168.47;5023946;28;20028;-79
2022/12/16 01:56:57;;;;;;;41.17;19.45;;;;;;;-6.35;68.91;98165.66;5035197;28;20041;-79
2022/12/16 01:59:25;;;;;;;38.28;19.55;;;;;;;-6.33;68.98;98179.31;5012348;28;20961;-79
2022/12/16 02:01:51;;;;;;;36.53;20.90;;;;;;;-6.22;68.58;98174.63;5023561;28;20467;-79
2022/12/16 02:04:16;;;;;;;36.60;18.63;;;;;;;-6.25;69.38;98179.34;5020643;28;20116;-79
2022/12/16 02:06:41;;;;;;;39.97;19.10;;;;;;;-6.28;68.78;98177.88;5040006;28;20576;-79
2022/12/16 02:09:10;;;;;;;35.92;19.00;;;;;;;-6.35;68.96;98163.91;5022660;28;20037;-79
2022/12/16 02:11:38;;;;;;;35.75;19.90;;;;;;;-6.29;68.81;98178.03;5020375;28;20025;-79
2022/12/16 02:14:41;;;;;;;37.35;19.40;;;;;;;-6.29;68.88;98175.44;5026445;28;20053;-79
2022/12/16 02:17:25;;;;;;;37.22;19.65;;;;;;;-6.23;68.63;98167.84;5019289;28;21693;-79
2022/12/16 02:20:02;;;;;;;49.50;23.17;;;;;;;-7.11;69.44;98168.31;5016041;28;20037;-79
2022/12/16 02:22:37;;;;;;;49.05;21.63;;;;;;;-7.08;70.67;98165.44;5016561;28;20128;-79
2022/12/16 02:25:09;;;;;;;40.60;20.70;;;;;;;-6.46;69.66;98173.75;5022376;28;20508;-79
2022/12/16 02:27:46;;;;;;;33.40;19.95;;;;;;;-6.40;69.23;98179.13;5025899;28;20025;-79
2022/12/16 02:30:46;;;;;;;42.85;20.85;;;;;;;-6.45;69.27;98172.78;5021306;28;20057;-79
2022/12/16 02:33:16;;;;;;;41.90;20.80;;;;;;;-6.44;68.89;98177.03;5024264;28;20083;-78
2022/12/16 02:35:59;;;;;;;45.58;19.60;;;;;;;-6.47;68.73;98169.56;5026557;28;20036;-79
2022/12/16 02:38:39;;;;;;;42.50;20.60;;;;;;;-6.46;69.06;98168.56;5026943;28;20098;-79
2022/12/16 02:41:20;;;;;;;37.35;19.90;;;;;;;-6.47;69.01;98162.59;5027349;28;20548;-79
2022/12/16 02:44:02;;;;;;;36.72;19.02;;;;;;;-6.39;68.91;98172.16;5033422;28;20091;-79
2022/12/16 02:46:31;;;;;;;36.13;19.20;;;;;;;-6.36;68.54;98172.66;5028830;28;20400;-79
2022/12/16 02:49:08;;;;;;;37.70;18.77;;;;;;;-6.60;68.72;98146.66;5028074;28;20040;-79
2022/12/16 02:51:36;;;;;;;42.28;20.77;;;;;;;-6.44;68.63;98174.44;5030213;28;20033;-79
2022/12/16 02:54:02;;;;;;;40.92;19.05;;;;;;;-6.37;68.44;98171.03;5027566;28;20033;-79
2022/12/16 02:56:56;;;;;;;38.60;20.00;;;;;;;-6.34;68.81;98169.91;5029976;28;20071;-79
2022/12/16 02:59:47;;;;;;;42.28;20.83;;;;;;;-6.33;68.31;98179.31;5017090;28;20025;-79
2022/12/16 03:02:35;;;;;;;37.17;18.77;;;;;;;-6.44;68.35;98164.06;5024218;28;20534;-79
2022/12/16 03:05:04;;;;;;;38.22;20.60;;;;;;;-6.55;68.69;98164.34;5045826;28;20025;-79
2022/12/16 03:07:35;;;;;;;38.10;20.15;;;;;;;-6.58;68.56;98177.63;5027335;28;20040;-79
2022/12/16 03:10:05;;;;;;;36.92;19.98;;;;;;;-6.57;68.58;98177.47;5022078;28;20025;-79
2022/12/16 03:12:32;;;;;;;44.88;23.13;;;;;;;-6.61;68.23;98165.78;5028068;28;20175;-79
2022/12/16 03:14:58;;;;;;;44.25;20.42;;;;;;;-6.59;68.29;98181.19;5022097;28;20033;-79
2022/12/16 03:17:26;;;;;;;42.25;20.33;;;;;;;-6.49;68.54;98172.31;5028233;28;20131;-79
2022/12/16 03:20:31;;;;;;;37.35;19.40;;;;;;;-6.44;68.58;98172.63;5009117;28;20111;-79
2022/12/16 03:23:02;;;;;;;35.10;19.02;;;;;;;-6.40;68.46;98173.94;4986900;28;20508;-79
2022/12/16 03:25:30;;;;;;;46.20;21.92;;;;;;;-6.45;68.14;98170.19;5026499;28;20029;-79
2022/12/16 03:28:11;;;;;;;38.17;19.35;;;;;;;-6.45;68.51;98165.84;5025151;28;20503;-79
2022/12/16 03:30:44;;;;;;;39.13;19.55;;;;;;;-6.43;68.65;98166.47;5025021;28;21008;-79
2022/12/16 03:33:22;;;;;;;35.55;19.80;;;;;;;-6.53;68.78;98165.00;5043067;28;20034;-79
2022/12/16 03:35:53;;;;;;;47.00;20.80;;;;;;;-6.43;68.51;98173.44;5039756;28;20017;-79
2022/12/16 03:38:20;;;;;;;37.65;19.95;;;;;;;-6.46;68.13;98176.34;5026123;28;20041;-79
2022/12/16 03:40:47;;;;;;;39.25;19.77;;;;;;;-6.54;68.44;98166.78;5027476;28;20033;-79
2022/12/16 03:43:14;;;;;;;46.15;22.33;;;;;;;-6.49;68.03;98164.53;5022512;28;20021;-79
2022/12/16 03:45:42;;;;;;;45.22;20.85;;;;;;;-6.63;67.68;98154.75;5030869;28;20095;-79
2022/12/16 03:48:09;;;;;;;42.03;21.10;;;;;;;-6.65;68.14;98148.06;5027430;28;20050;-79
2022/12/16 03:50:36;;;;;;;41.72;20.48;;;;;;;-6.56;67.90;98160.94;5040016;28;20041;-79
2022/12/16 03:53:02;;;;;;;39.00;19.40;;;;;;;-6.57;67.75;98164.47;5024769;28;20036;-79
2022/12/16 03:55:28;;;;;;;41.45;20.52;;;;;;;-6.76;67.55;98161.34;5029815;28;20112;-79
2022/12/16 03:57:54;;;;;;;38.33;20.92;;;;;;;-6.78;68.04;98151.13;5025434;28;20116;-79
2022/12/16 04:00:20;;;;;;;34.95;19.00;;;;;;;-7.18;69.44;98182.03;5028951;28;20026;-79
2022/12/16 04:02:45;;;;;;;34.47;19.38;;;;;;;-8.70;70.64;98165.13;5026944;28;20025;-79
2022/12/16 04:05:13;;;;;;;43.38;22.50;;;;;;;-9.06;71.93;98183.25;5029984;28;20029;-79
2022/12/16 04:07:39;;;;;;;42.75;21.98;;;;;;;-9.39;72.88;98193.13;5026970;28;20549;-79
2022/12/16 04:10:05;;;;;;;49.47;25.23;;;;;;;-8.50;72.23;98184.75;5025850;28;20124;-79
2022/12/16 04:26:12;;;;;;;40.88;20.77;;;;;;;-8.16;69.71;98203.00;5020398;28;20055;-79
2022/12/16 04:28:37;;;;;;;38.50;20.15;;;;;;;-7.46;71.24;98201.31;5020701;28;20037;-79
2022/12/16 04:31:03;;;;;;;36.35;20.92;;;;;;;-7.23;70.17;98200.66;5004170;28;20485;-79
